createdAt,value
2018-01-29T00:00:24.258Z,21.32
2018-01-29T00:01:33.789Z,21.35
2018-01-29T00:02:42.518Z,21.42
2018-01-29T00:03:51.477Z,21.32
2018-01-29T00:05:00.461Z,21.37
2018-01-29T00:06:10.503Z,21.4
2018-01-29T00:07:19.456Z,21.35
2018-01-29T00:08:28.689Z,21.42
2018-01-29T00:09:37.676Z,21.44
2018-01-29T00:10:47.156Z,21.37
2018-01-29T00:11:56.138Z,21.37
2018-01-29T00:13:04.887Z,21.35
2018-01-29T00:14:13.879Z,21.37
2018-01-29T00:15:22.877Z,21.31
2018-01-29T00:16:31.634Z,21.37
2018-01-29T00:17:40.331Z,21.35
2018-01-29T00:18:49.591Z,21.43
2018-01-29T00:19:58.591Z,21.43
2018-01-29T00:21:07.583Z,21.34
2018-01-29T00:22:16.349Z,21.34
2018-01-29T00:23:25.600Z,21.35
2018-01-29T00:24:34.863Z,21.37
2018-01-29T00:25:44.098Z,21.4
2018-01-29T00:26:53.597Z,21.37
2018-01-29T00:28:02.600Z,21.4
2018-01-29T00:29:11.599Z,21.43
2018-01-29T00:30:20.818Z,21.34
2018-01-29T00:31:29.772Z,21.37
2018-01-29T00:32:38.834Z,21.4
2018-01-29T00:33:47.577Z,21.4
2018-01-29T00:34:56.809Z,21.4
2018-01-29T00:36:06.045Z,21.44
2018-01-29T00:37:15.256Z,21.46
2018-01-29T00:38:24.213Z,21.47
2018-01-29T00:39:33.749Z,21.42
2018-01-29T00:40:42.452Z,21.47
2018-01-29T00:41:51.718Z,21.34
2018-01-29T00:43:00.963Z,21.43
2018-01-29T00:44:10.216Z,21.44
2018-01-29T00:45:18.997Z,21.42
2018-01-29T00:46:28.739Z,21.47
2018-01-29T00:47:37.726Z,21.44
2018-01-29T00:48:46.707Z,21.44
2018-01-29T00:49:55.428Z,21.44
2018-01-29T00:51:04.438Z,21.4
2018-01-29T00:52:13.929Z,21.38
2018-01-29T00:53:22.879Z,21.37
2018-01-29T00:54:31.914Z,21.4
2018-01-29T00:55:41.141Z,21.38
2018-01-29T00:56:49.884Z,21.4
2018-01-29T00:57:58.586Z,21.4
2018-01-29T00:59:07.280Z,21.47
2018-01-29T01:00:16.276Z,21.44
2018-01-29T01:01:25.503Z,21.49
2018-01-29T01:02:34.509Z,21.49
2018-01-29T01:03:43.741Z,21.43
2018-01-29T01:04:52.985Z,21.4
2018-01-29T01:06:01.700Z,21.4
2018-01-29T01:07:10.665Z,21.46
2018-01-29T01:08:19.630Z,21.42
2018-01-29T01:09:28.593Z,21.37
2018-01-29T01:10:37.301Z,21.42
2018-01-29T01:11:46.058Z,21.47
2018-01-29T01:12:55.034Z,21.47
2018-01-29T01:14:04.041Z,21.4
2018-01-29T01:15:13.575Z,21.38
2018-01-29T01:16:22.552Z,21.43
2018-01-29T01:17:31.963Z,21.43
2018-01-29T01:18:40.696Z,21.46
2018-01-29T01:19:49.428Z,21.38
2018-01-29T01:20:58.731Z,21.4
2018-01-29T01:22:07.978Z,21.42
2018-01-29T01:23:16.979Z,21.43
2018-01-29T01:24:26.482Z,21.46
2018-01-29T01:25:35.522Z,21.42
2018-01-29T01:26:44.525Z,21.47
2018-01-29T01:27:53.499Z,21.42
2018-01-29T01:29:02.776Z,21.43
2018-01-29T01:30:12.529Z,21.5
2018-01-29T01:31:21.248Z,21.44
2018-01-29T01:32:30.226Z,21.4
2018-01-29T01:33:39.486Z,21.43
2018-01-29T01:34:48.450Z,21.44
2018-01-29T01:35:57.741Z,21.38
2018-01-29T01:37:06.467Z,21.46
2018-01-29T01:38:15.458Z,21.4
2018-01-29T01:39:24.494Z,21.44
2018-01-29T01:40:33.478Z,21.49
2018-01-29T01:41:42.704Z,21.38
2018-01-29T01:42:51.428Z,21.43
2018-01-29T01:44:00.158Z,21.43
2018-01-29T01:45:09.655Z,21.46
2018-01-29T01:46:18.915Z,21.46
2018-01-29T01:47:27.873Z,21.42
2018-01-29T01:48:37.120Z,21.42
2018-01-29T01:49:46.352Z,21.46
2018-01-29T01:50:55.873Z,21.42
2018-01-29T01:52:04.611Z,21.42
2018-01-29T01:53:13.564Z,21.4
2018-01-29T01:54:22.810Z,21.43
2018-01-29T01:55:31.793Z,21.42
2018-01-29T01:56:41.029Z,21.43
2018-01-29T01:57:50.266Z,21.43
2018-01-29T01:58:59.013Z,21.43
2018-01-29T02:00:07.985Z,21.43
2018-01-29T02:01:16.712Z,21.46
2018-01-29T02:02:25.780Z,21.43
2018-01-29T02:03:34.504Z,21.42
2018-01-29T02:04:43.752Z,21.38
2018-01-29T02:05:52.462Z,21.38
2018-01-29T02:07:01.983Z,21.4
2018-01-29T02:08:10.989Z,21.38
2018-01-29T02:09:20.211Z,21.38
2018-01-29T02:10:28.924Z,21.43
2018-01-29T02:11:37.974Z,21.43
2018-01-29T02:12:47.224Z,21.43
2018-01-29T02:13:56.476Z,21.43
2018-01-29T02:15:05.701Z,21.42
2018-01-29T02:16:14.696Z,21.4
2018-01-29T02:17:24.194Z,21.43
2018-01-29T02:18:33.439Z,21.4
2018-01-29T02:19:42.419Z,21.47
2018-01-29T02:20:51.163Z,21.43
2018-01-29T02:22:00.152Z,21.42
2018-01-29T02:23:09.422Z,21.38
2018-01-29T02:24:18.418Z,21.43
2018-01-29T02:25:27.154Z,21.47
2018-01-29T02:26:35.887Z,21.49
2018-01-29T02:27:45.133Z,21.38
2018-01-29T02:28:54.396Z,21.4
2018-01-29T02:30:03.130Z,21.47
2018-01-29T02:31:12.629Z,21.46
2018-01-29T02:32:21.865Z,21.49
2018-01-29T02:33:31.387Z,21.37
2018-01-29T02:34:40.894Z,21.44
2018-01-29T02:35:50.137Z,21.4
2018-01-29T02:36:59.224Z,21.4
2018-01-29T02:38:08.487Z,21.49
2018-01-29T02:39:17.473Z,21.5
2018-01-29T02:40:26.707Z,21.4
2018-01-29T02:41:35.948Z,21.49
2018-01-29T02:42:44.918Z,21.53
2018-01-29T02:43:53.877Z,21.53
2018-01-29T02:45:03.114Z,21.49
2018-01-29T02:46:12.611Z,21.47
2018-01-29T02:47:21.344Z,21.47
2018-01-29T02:48:30.307Z,21.37
2018-01-29T02:49:39.284Z,21.46
2018-01-29T02:50:48.280Z,21.47
2018-01-29T02:51:57.000Z,21.52
2018-01-29T02:53:05.699Z,21.44
2018-01-29T02:54:14.936Z,21.52
2018-01-29T02:55:24.186Z,21.43
2018-01-29T02:56:33.967Z,21.5
2018-01-29T02:57:42.930Z,21.47
2018-01-29T02:58:52.194Z,21.54
2018-01-29T03:00:01.173Z,21.52
2018-01-29T03:01:10.146Z,21.49
2018-01-29T03:02:19.419Z,21.4
2018-01-29T03:03:29.203Z,21.42
2018-01-29T03:04:38.440Z,21.49
2018-01-29T03:05:47.420Z,21.42
2018-01-29T03:06:56.693Z,21.4
2018-01-29T03:08:05.667Z,21.4
2018-01-29T03:09:14.638Z,21.49
2018-01-29T03:10:23.359Z,21.49
2018-01-29T03:11:32.094Z,21.4
2018-01-29T03:12:41.596Z,21.43
2018-01-29T03:13:50.323Z,21.37
2018-01-29T03:14:59.294Z,21.37
2018-01-29T03:16:08.011Z,21.37
2018-01-29T03:17:17.048Z,21.46
2018-01-29T03:18:26.291Z,21.4
2018-01-29T03:19:35.257Z,21.42
2018-01-29T03:20:44.506Z,21.4
2018-01-29T03:21:53.719Z,21.47
2018-01-29T03:23:03.209Z,21.47
2018-01-29T03:24:12.180Z,21.44
2018-01-29T03:25:21.158Z,21.42
2018-01-29T03:26:30.150Z,21.47
2018-01-29T03:27:38.889Z,21.44
2018-01-29T03:28:48.142Z,21.37
2018-01-29T03:29:56.843Z,21.38
2018-01-29T03:31:05.554Z,21.42
2018-01-29T03:32:14.539Z,21.37
2018-01-29T03:33:23.495Z,21.43
2018-01-29T03:34:32.459Z,21.47
2018-01-29T03:35:41.693Z,21.37
2018-01-29T03:36:50.405Z,21.4
2018-01-29T03:37:59.106Z,21.42
2018-01-29T03:39:08.365Z,21.43
2018-01-29T03:40:17.350Z,21.37
2018-01-29T03:41:26.612Z,21.4
2018-01-29T03:42:35.324Z,21.46
2018-01-29T03:43:44.047Z,21.37
2018-01-29T03:44:53.029Z,21.44
2018-01-29T03:46:02.256Z,21.42
2018-01-29T03:47:11.542Z,21.37
2018-01-29T03:48:20.778Z,21.43
2018-01-29T03:49:29.792Z,21.37
2018-01-29T03:50:38.539Z,21.43
2018-01-29T03:51:47.783Z,21.37
2018-01-29T03:52:57.059Z,21.4
2018-01-29T03:54:06.043Z,21.43
2018-01-29T03:55:15.054Z,21.43
2018-01-29T03:56:24.029Z,21.43
2018-01-29T03:57:33.258Z,21.38
2018-01-29T03:58:42.279Z,21.42
2018-01-29T03:59:51.548Z,21.44
2018-01-29T04:01:00.275Z,21.43
2018-01-29T04:02:09.257Z,21.44
2018-01-29T04:03:18.758Z,21.43
2018-01-29T04:04:27.998Z,21.42
2018-01-29T04:05:37.298Z,21.46
2018-01-29T04:06:46.295Z,21.43
2018-01-29T04:07:55.534Z,21.38
2018-01-29T04:09:04.307Z,21.37
2018-01-29T04:10:13.317Z,21.38
2018-01-29T04:11:22.326Z,21.43
2018-01-29T04:12:31.593Z,21.4
2018-01-29T04:13:41.121Z,21.43
2018-01-29T04:14:50.121Z,21.5
2018-01-29T04:15:59.362Z,21.42
2018-01-29T04:17:08.614Z,21.42
2018-01-29T04:18:17.575Z,21.43
2018-01-29T04:19:26.839Z,21.42
2018-01-29T04:20:36.097Z,21.43
2018-01-29T04:21:45.315Z,21.38
2018-01-29T04:22:54.285Z,21.46
2018-01-29T04:24:02.990Z,21.43
2018-01-29T04:25:12.257Z,21.43
2018-01-29T04:26:22.066Z,21.37
2018-01-29T04:27:31.338Z,21.37
2018-01-29T04:28:40.613Z,21.47
2018-01-29T04:29:49.605Z,21.43
2018-01-29T04:30:59.088Z,21.43
2018-01-29T04:32:08.339Z,21.37
2018-01-29T04:33:17.325Z,21.42
2018-01-29T04:34:26.032Z,21.42
2018-01-29T04:35:35.279Z,21.47
2018-01-29T04:36:44.528Z,21.38
2018-01-29T04:37:53.495Z,21.47
2018-01-29T04:39:02.227Z,21.46
2018-01-29T04:40:11.054Z,21.42
2018-01-29T04:41:20.036Z,21.4
2018-01-29T04:42:28.826Z,21.37
2018-01-29T04:43:37.803Z,21.4
2018-01-29T04:44:47.066Z,21.34
2018-01-29T04:45:56.322Z,21.4
2018-01-29T04:47:05.269Z,21.44
2018-01-29T04:48:14.242Z,21.47
2018-01-29T04:49:22.951Z,21.42
2018-01-29T04:50:32.183Z,21.42
2018-01-29T04:51:41.149Z,21.43
2018-01-29T04:52:50.100Z,21.52
2018-01-29T04:53:59.065Z,21.46
2018-01-29T04:55:08.309Z,21.43
2018-01-29T04:56:17.298Z,21.47
2018-01-29T04:57:26.010Z,21.42
2018-01-29T04:58:35.244Z,21.43
2018-01-29T04:59:44.473Z,21.4
2018-01-29T05:00:53.995Z,21.44
2018-01-29T05:02:02.706Z,21.46
2018-01-29T05:03:11.966Z,21.49
2018-01-29T05:04:21.200Z,21.42
2018-01-29T05:05:30.166Z,21.43
2018-01-29T05:06:39.450Z,21.43
2018-01-29T05:07:48.491Z,21.47
2018-01-29T05:08:57.201Z,21.37
2018-01-29T05:10:06.440Z,21.4
2018-01-29T05:11:15.408Z,21.44
2018-01-29T05:12:24.690Z,21.4
2018-01-29T05:13:33.916Z,21.44
2018-01-29T05:14:43.155Z,21.42
2018-01-29T05:15:51.872Z,21.47
2018-01-29T05:17:01.086Z,21.5
2018-01-29T05:18:10.323Z,21.44
2018-01-29T05:19:19.565Z,21.46
2018-01-29T05:20:29.054Z,21.44
2018-01-29T05:21:38.072Z,21.46
2018-01-29T05:22:47.374Z,21.46
2018-01-29T05:23:56.363Z,21.38
2018-01-29T05:25:05.357Z,21.47
2018-01-29T05:26:14.342Z,21.44
2018-01-29T05:27:24.040Z,21.44
2018-01-29T05:28:33.582Z,21.42
2018-01-29T05:29:42.554Z,21.42
2018-01-29T05:30:51.529Z,21.43
2018-01-29T05:32:01.046Z,21.46
2018-01-29T05:33:10.007Z,21.43
2018-01-29T05:34:19.218Z,21.37
2018-01-29T05:35:27.921Z,21.43
2018-01-29T05:36:37.297Z,21.44
2018-01-29T05:37:46.000Z,21.5
2018-01-29T05:38:55.004Z,21.53
2018-01-29T05:40:04.801Z,21.53
2018-01-29T05:41:13.840Z,21.58
2018-01-29T05:42:23.067Z,21.67
2018-01-29T05:43:32.325Z,21.67
2018-01-29T05:44:41.363Z,21.8
2018-01-29T05:45:50.856Z,21.79
2018-01-29T05:47:00.063Z,21.9
2018-01-29T05:48:09.030Z,21.88
2018-01-29T05:49:17.993Z,21.9
2018-01-29T05:50:27.480Z,21.96
2018-01-29T05:51:36.508Z,22.03
2018-01-29T05:52:45.506Z,22.14
2018-01-29T05:53:54.484Z,22.03
2018-01-29T05:55:03.486Z,22.24
2018-01-29T05:56:12.490Z,22.21
2018-01-29T05:57:21.525Z,22.28
2018-01-29T05:58:30.209Z,22.3
2018-01-29T05:59:39.185Z,22.3
2018-01-29T06:00:48.482Z,22.37
2018-01-29T06:01:57.482Z,22.43
2018-01-29T06:03:06.745Z,22.46
2018-01-29T06:04:15.691Z,22.46
2018-01-29T06:05:24.958Z,22.47
2018-01-29T06:06:33.930Z,22.58
2018-01-29T06:07:42.903Z,22.57
2018-01-29T06:08:51.613Z,22.61
2018-01-29T06:10:00.567Z,22.58
2018-01-29T06:11:09.542Z,22.68
2018-01-29T06:12:18.510Z,22.64
2018-01-29T06:13:27.320Z,22.76
2018-01-29T06:14:36.011Z,22.8
2018-01-29T06:15:45.220Z,22.82
2018-01-29T06:16:54.207Z,22.9
2018-01-29T06:18:03.477Z,22.94
2018-01-29T06:19:13.251Z,22.98
2018-01-29T06:20:22.214Z,23.04
2018-01-29T06:21:31.491Z,23.16
2018-01-29T06:22:40.986Z,23.15
2018-01-29T06:23:49.955Z,23.17
2018-01-29T06:24:58.990Z,23.25
2018-01-29T06:26:08.196Z,23.2
2018-01-29T06:27:17.151Z,23.25
2018-01-29T06:28:26.111Z,23.28
2018-01-29T06:29:35.353Z,23.4
2018-01-29T06:30:44.604Z,23.36
2018-01-29T06:31:54.127Z,23.38
2018-01-29T06:33:03.076Z,23.35
2018-01-29T06:34:12.548Z,23.48
2018-01-29T06:35:21.496Z,23.48
2018-01-29T06:36:30.747Z,23.51
2018-01-29T06:37:39.731Z,23.55
2018-01-29T06:38:48.700Z,23.6
2018-01-29T06:39:57.977Z,23.65
2018-01-29T06:41:07.200Z,23.7
2018-01-29T06:42:15.993Z,23.76
2018-01-29T06:43:25.293Z,23.73
2018-01-29T06:44:34.521Z,23.75
2018-01-29T06:45:44.009Z,23.75
2018-01-29T06:46:52.982Z,23.79
2018-01-29T06:48:02.258Z,23.87
2018-01-29T06:49:11.493Z,23.85
2018-01-29T06:50:20.195Z,23.87
2018-01-29T06:51:29.180Z,23.94
2018-01-29T06:52:38.384Z,23.9
2018-01-29T06:53:47.387Z,23.91
2018-01-29T06:54:56.080Z,23.98
2018-01-29T06:56:05.052Z,23.9
2018-01-29T06:57:14.556Z,23.85
2018-01-29T06:58:23.793Z,23.93
2018-01-29T06:59:33.007Z,23.91
2018-01-29T07:00:41.974Z,23.93
2018-01-29T07:01:51.184Z,23.93
2018-01-29T07:03:00.667Z,23.94
2018-01-29T07:04:09.632Z,23.88
2018-01-29T07:05:18.351Z,23.9
2018-01-29T07:06:27.637Z,23.93
2018-01-29T07:07:36.649Z,23.85
2018-01-29T07:08:45.396Z,23.87
2018-01-29T07:09:54.107Z,23.9
2018-01-29T07:11:03.363Z,23.83
2018-01-29T07:12:12.365Z,23.8
2018-01-29T07:13:21.371Z,23.73
2018-01-29T07:14:30.364Z,23.76
2018-01-29T07:15:39.625Z,23.84
2018-01-29T07:16:48.600Z,23.76
2018-01-29T07:17:57.822Z,23.72
2018-01-29T07:19:07.308Z,23.66
2018-01-29T07:20:16.848Z,23.76
2018-01-29T07:21:25.808Z,23.73
2018-01-29T07:22:35.008Z,23.66
2018-01-29T07:23:43.977Z,23.65
2018-01-29T07:24:52.921Z,23.51
2018-01-29T07:26:01.621Z,23.58
2018-01-29T07:27:10.837Z,23.61
2018-01-29T07:28:19.794Z,23.55
2018-01-29T07:29:29.042Z,23.5
2018-01-29T07:30:38.267Z,23.47
2018-01-29T07:31:47.480Z,23.51
2018-01-29T07:32:56.182Z,23.39
2018-01-29T07:34:05.135Z,23.39
2018-01-29T07:35:14.115Z,23.33
2018-01-29T07:36:23.069Z,23.25
2018-01-29T07:37:31.761Z,23.39
2018-01-29T07:38:40.987Z,23.28
2018-01-29T07:39:49.977Z,23.25
2018-01-29T07:40:59.202Z,23.23
2018-01-29T07:42:07.905Z,23.25
2018-01-29T07:43:16.962Z,23.16
2018-01-29T07:44:26.187Z,23.17
2018-01-29T07:45:35.442Z,23.16
2018-01-29T07:46:44.672Z,23.07
2018-01-29T07:47:54.442Z,23.15
2018-01-29T07:49:03.433Z,23.05
2018-01-29T07:50:12.196Z,23.05
2018-01-29T07:51:21.700Z,23.01
2018-01-29T07:52:30.684Z,23.04
2018-01-29T07:53:39.438Z,23.01
2018-01-29T07:54:48.408Z,22.95
2018-01-29T07:55:57.218Z,22.94
2018-01-29T07:57:06.207Z,22.94
2018-01-29T07:58:14.911Z,22.88
2018-01-29T07:59:24.146Z,22.91
2018-01-29T08:00:33.107Z,22.85
2018-01-29T08:01:42.362Z,22.82
2018-01-29T08:02:51.362Z,22.8
2018-01-29T08:04:00.272Z,22.76
2018-01-29T08:05:08.980Z,22.82
2018-01-29T08:06:17.687Z,22.75
2018-01-29T08:07:26.651Z,22.68
2018-01-29T08:08:35.674Z,22.75
2018-01-29T08:09:44.887Z,22.76
2018-01-29T08:10:54.598Z,22.64
2018-01-29T08:12:04.080Z,22.68
2018-01-29T08:13:13.848Z,22.64
2018-01-29T08:14:23.140Z,22.65
2018-01-29T08:15:32.063Z,22.62
2018-01-29T08:16:40.805Z,22.62
2018-01-29T08:17:50.071Z,22.55
2018-01-29T08:18:59.312Z,22.57
2018-01-29T08:20:08.551Z,22.67
2018-01-29T08:21:17.534Z,22.55
2018-01-29T08:22:26.274Z,22.6
2018-01-29T08:23:35.569Z,22.61
2018-01-29T08:24:44.265Z,22.61
2018-01-29T08:25:53.256Z,22.61
2018-01-29T08:27:02.251Z,22.54
2018-01-29T08:28:11.264Z,22.57
2018-01-29T08:29:20.259Z,22.65
2018-01-29T08:30:28.983Z,22.61
2018-01-29T08:31:38.515Z,22.6
2018-01-29T08:32:47.506Z,22.58
2018-01-29T08:33:56.505Z,22.58
2018-01-29T08:35:05.507Z,22.61
2018-01-29T08:36:14.238Z,22.51
2018-01-29T08:37:22.980Z,22.47
2018-01-29T08:38:32.467Z,22.51
2018-01-29T08:39:41.715Z,22.57
2018-01-29T08:40:51.462Z,22.42
2018-01-29T08:42:00.457Z,22.43
2018-01-29T08:43:09.533Z,22.42
2018-01-29T08:44:18.544Z,22.46
2018-01-29T08:45:27.289Z,22.4
2018-01-29T08:46:36.541Z,22.45
2018-01-29T08:47:45.777Z,22.46
2018-01-29T08:48:54.486Z,22.45
2018-01-29T08:50:03.198Z,22.47
2018-01-29T08:51:12.185Z,22.45
2018-01-29T08:52:21.161Z,22.4
2018-01-29T08:53:29.884Z,22.45
2018-01-29T08:54:38.627Z,22.39
2018-01-29T08:55:48.109Z,22.37
2018-01-29T08:56:57.332Z,22.42
2018-01-29T08:58:06.340Z,22.39
2018-01-29T08:59:15.842Z,22.37
2018-01-29T09:00:24.579Z,22.39
2018-01-29T09:01:33.830Z,22.37
2018-01-29T09:02:42.618Z,22.37
2018-01-29T09:03:51.327Z,22.35
2018-01-29T09:05:00.558Z,22.35
2018-01-29T09:06:09.790Z,22.33
2018-01-29T09:07:19.053Z,22.33
2018-01-29T09:08:28.022Z,22.36
2018-01-29T09:09:37.579Z,22.35
2018-01-29T09:10:47.071Z,22.33
2018-01-29T09:11:56.381Z,22.35
2018-01-29T09:13:05.706Z,22.28
2018-01-29T09:14:14.580Z,22.31
2018-01-29T09:15:23.806Z,22.28
2018-01-29T09:16:33.028Z,22.31
2018-01-29T09:17:42.314Z,22.3
2018-01-29T09:18:51.086Z,22.31
2018-01-29T09:20:00.066Z,22.25
2018-01-29T09:21:09.596Z,22.31
2018-01-29T09:22:18.860Z,22.36
2018-01-29T09:23:28.127Z,22.27
2018-01-29T09:24:37.416Z,22.28
2018-01-29T09:25:46.111Z,22.35
2018-01-29T09:26:55.599Z,22.31
2018-01-29T09:28:04.643Z,22.27
2018-01-29T09:29:14.233Z,22.3
2018-01-29T09:30:23.480Z,22.39
2018-01-29T09:31:32.469Z,22.24
2018-01-29T09:32:41.165Z,22.3
2018-01-29T09:33:50.129Z,22.31
2018-01-29T09:34:59.613Z,22.27
2018-01-29T09:36:08.308Z,22.24
2018-01-29T09:37:17.558Z,22.3
2018-01-29T09:38:26.270Z,22.28
2018-01-29T09:39:35.258Z,22.31
2018-01-29T09:40:44.511Z,22.33
2018-01-29T09:41:53.250Z,22.24
2018-01-29T09:43:02.218Z,22.28
2018-01-29T09:44:11.213Z,22.33
2018-01-29T09:45:20.454Z,22.21
2018-01-29T09:46:29.947Z,22.3
2018-01-29T09:47:38.950Z,22.28
2018-01-29T09:48:48.428Z,22.27
2018-01-29T09:49:57.157Z,22.31
2018-01-29T09:51:05.854Z,22.24
2018-01-29T09:52:15.087Z,22.24
2018-01-29T09:53:24.055Z,22.22
2018-01-29T09:54:32.752Z,22.33
2018-01-29T09:55:41.715Z,22.27
2018-01-29T09:56:50.422Z,22.25
2018-01-29T09:57:59.643Z,22.28
2018-01-29T09:59:08.624Z,22.33
2018-01-29T10:00:17.867Z,22.3
2018-01-29T10:01:26.838Z,22.25
2018-01-29T10:02:36.189Z,22.27
2018-01-29T10:03:45.171Z,22.24
2018-01-29T10:04:54.461Z,22.24
2018-01-29T10:06:03.447Z,22.28
2018-01-29T10:07:12.154Z,22.27
2018-01-29T10:08:21.385Z,22.28
2018-01-29T10:09:30.106Z,22.27
2018-01-29T10:10:39.347Z,22.24
2018-01-29T10:11:48.315Z,22.3
2018-01-29T10:12:57.277Z,22.25
2018-01-29T10:14:07.024Z,22.3
2018-01-29T10:15:15.983Z,22.25
2018-01-29T10:16:25.213Z,22.28
2018-01-29T10:17:34.183Z,22.31
2018-01-29T10:18:42.934Z,22.24
2018-01-29T10:19:52.230Z,22.21
2018-01-29T10:21:01.530Z,22.28
2018-01-29T10:22:11.058Z,22.24
2018-01-29T10:23:20.295Z,22.24
2018-01-29T10:24:29.248Z,22.27
2018-01-29T10:25:38.212Z,22.24
2018-01-29T10:26:47.182Z,22.27
2018-01-29T10:27:56.397Z,22.27
2018-01-29T10:29:05.371Z,22.35
2018-01-29T10:30:14.082Z,22.3
2018-01-29T10:31:23.392Z,22.28
2018-01-29T10:32:32.363Z,22.27
2018-01-29T10:33:41.599Z,22.33
2018-01-29T10:34:50.634Z,22.31
2018-01-29T10:35:59.867Z,22.3
2018-01-29T10:37:09.634Z,22.27
2018-01-29T10:38:19.130Z,22.28
2018-01-29T10:39:28.135Z,22.3
2018-01-29T10:40:37.366Z,22.28
2018-01-29T10:41:46.078Z,22.33
2018-01-29T10:42:55.048Z,22.35
2018-01-29T10:44:04.286Z,22.24
2018-01-29T10:45:13.255Z,22.33
2018-01-29T10:46:22.764Z,22.31
2018-01-29T10:47:31.473Z,22.27
2018-01-29T10:48:40.451Z,22.24
2018-01-29T10:49:49.412Z,22.35
2018-01-29T10:50:58.386Z,22.35
2018-01-29T10:52:07.858Z,22.31
2018-01-29T10:53:16.888Z,22.36
2018-01-29T10:54:25.618Z,22.31
2018-01-29T10:55:34.597Z,22.28
2018-01-29T10:56:43.301Z,22.3
2018-01-29T10:57:52.006Z,22.31
2018-01-29T10:59:00.960Z,22.25
2018-01-29T11:00:09.662Z,22.31
2018-01-29T11:01:18.643Z,22.27
2018-01-29T11:02:28.123Z,22.27
2018-01-29T11:03:37.357Z,22.27
2018-01-29T11:04:46.339Z,22.3
2018-01-29T11:05:55.307Z,22.28
2018-01-29T11:07:04.007Z,22.28
2018-01-29T11:08:13.569Z,22.24
2018-01-29T11:09:22.798Z,22.27
2018-01-29T11:10:32.301Z,22.27
2018-01-29T11:11:41.536Z,22.21
2018-01-29T11:12:50.499Z,22.33
2018-01-29T11:13:59.757Z,22.3
2018-01-29T11:15:08.989Z,22.3
2018-01-29T11:16:17.744Z,22.31
2018-01-29T11:17:26.767Z,22.25
2018-01-29T11:18:35.479Z,22.28
2018-01-29T11:19:44.443Z,22.3
2018-01-29T11:20:53.680Z,22.28
2018-01-29T11:22:02.906Z,22.3
2018-01-29T11:23:12.158Z,22.31
2018-01-29T11:24:21.117Z,22.24
2018-01-29T11:25:29.822Z,22.28
2018-01-29T11:26:39.067Z,22.24
2018-01-29T11:27:48.067Z,22.27
2018-01-29T11:28:56.782Z,22.28
2018-01-29T11:30:06.253Z,22.25
2018-01-29T11:31:15.207Z,22.3
2018-01-29T11:32:24.165Z,22.25
2018-01-29T11:33:33.130Z,22.27
2018-01-29T11:34:42.440Z,22.25
2018-01-29T11:35:52.236Z,22.22
2018-01-29T11:37:01.746Z,22.27
2018-01-29T11:38:10.790Z,22.31
2018-01-29T11:39:19.517Z,22.24
2018-01-29T11:40:28.748Z,22.3
2018-01-29T11:41:37.750Z,22.31
2018-01-29T11:42:46.731Z,22.25
2018-01-29T11:43:55.710Z,22.28
2018-01-29T11:45:04.476Z,22.28
2018-01-29T11:46:13.185Z,22.22
2018-01-29T11:47:22.170Z,22.22
2018-01-29T11:48:31.391Z,22.27
2018-01-29T11:49:40.351Z,22.27
2018-01-29T11:50:49.351Z,22.24
2018-01-29T11:51:58.311Z,22.2
2018-01-29T11:53:07.033Z,22.22
2018-01-29T11:54:16.275Z,22.25
2018-01-29T11:55:25.269Z,22.2
2018-01-29T11:56:34.237Z,22.22
2018-01-29T11:57:43.227Z,22.22
2018-01-29T11:58:52.196Z,22.25
2018-01-29T12:00:01.191Z,22.24
2018-01-29T12:01:09.882Z,22.27
2018-01-29T12:02:18.844Z,22.25
2018-01-29T12:03:27.555Z,22.22
2018-01-29T12:04:36.573Z,22.21
2018-01-29T12:05:45.286Z,22.21
2018-01-29T12:06:54.012Z,22.22
2018-01-29T12:08:03.237Z,22.21
2018-01-29T12:09:12.210Z,22.24
2018-01-29T12:10:20.913Z,22.15
2018-01-29T12:11:30.147Z,22.28
2018-01-29T12:12:39.379Z,22.2
2018-01-29T12:13:48.369Z,22.2
2018-01-29T12:14:57.598Z,22.21
2018-01-29T12:16:06.833Z,22.25
2018-01-29T12:17:15.559Z,22.2
2018-01-29T12:18:24.811Z,22.24
2018-01-29T12:19:33.597Z,22.27
2018-01-29T12:20:42.809Z,22.24
2018-01-29T12:21:51.515Z,22.2
2018-01-29T12:23:00.758Z,22.2
2018-01-29T12:24:09.998Z,22.27
2018-01-29T12:25:18.988Z,22.24
2018-01-29T12:26:27.718Z,22.21
2018-01-29T12:27:36.683Z,22.22
2018-01-29T12:28:45.407Z,22.3
2018-01-29T12:29:54.132Z,22.22
2018-01-29T12:31:02.834Z,22.21
2018-01-29T12:32:11.615Z,22.21
2018-01-29T12:33:20.839Z,22.18
2018-01-29T12:34:29.831Z,22.2
2018-01-29T12:35:39.053Z,22.24
2018-01-29T12:36:48.827Z,22.22
2018-01-29T12:37:58.063Z,22.17
2018-01-29T12:39:07.041Z,22.17
2018-01-29T12:40:16.293Z,22.22
2018-01-29T12:41:25.254Z,22.18
2018-01-29T12:42:34.239Z,22.15
2018-01-29T12:43:43.470Z,22.18
2018-01-29T12:44:52.974Z,22.17
2018-01-29T12:46:01.949Z,22.21
2018-01-29T12:47:11.190Z,22.2
2018-01-29T12:48:20.492Z,22.21
2018-01-29T12:49:29.468Z,22.15
2018-01-29T12:50:38.453Z,22.15
2018-01-29T12:51:47.433Z,22.15
2018-01-29T12:52:56.451Z,22.12
2018-01-29T12:54:05.965Z,22.18
2018-01-29T12:55:15.473Z,22.17
2018-01-29T12:56:24.208Z,22.18
2018-01-29T12:57:33.174Z,22.2
2018-01-29T12:58:42.464Z,22.21
2018-01-29T12:59:52.213Z,22.2
2018-01-29T13:01:01.186Z,22.22
2018-01-29T13:02:10.169Z,22.22
2018-01-29T13:03:18.869Z,22.22
2018-01-29T13:04:27.850Z,22.2
2018-01-29T13:05:36.801Z,22.1
2018-01-29T13:06:45.501Z,22.2
2018-01-29T13:07:54.479Z,22.17
2018-01-29T13:09:03.966Z,22.21
2018-01-29T13:10:12.661Z,22.14
2018-01-29T13:11:21.880Z,22.22
2018-01-29T13:12:30.879Z,22.22
2018-01-29T13:13:39.601Z,22.21
2018-01-29T13:14:48.615Z,22.18
2018-01-29T13:15:58.108Z,22.12
2018-01-29T13:17:07.356Z,22.22
2018-01-29T13:18:16.076Z,22.14
2018-01-29T13:19:25.297Z,22.24
2018-01-29T13:20:34.278Z,22.15
2018-01-29T13:21:43.262Z,22.21
2018-01-29T13:22:52.501Z,22.22
2018-01-29T13:24:01.705Z,22.24
2018-01-29T13:25:10.724Z,22.22
2018-01-29T13:26:19.992Z,22.21
2018-01-29T13:27:29.541Z,22.21
2018-01-29T13:28:39.362Z,22.2
2018-01-29T13:29:48.583Z,22.22
2018-01-29T13:30:57.538Z,22.12
2018-01-29T13:32:06.798Z,22.18
2018-01-29T13:33:16.147Z,22.1
2018-01-29T13:34:25.445Z,22.1
2018-01-29T13:35:34.420Z,22.14
2018-01-29T13:36:43.409Z,22.12
2018-01-29T13:37:52.117Z,22.05
2018-01-29T13:39:01.095Z,22.18
2018-01-29T13:40:10.070Z,22.17
2018-01-29T13:41:19.076Z,22.1
2018-01-29T13:42:28.309Z,22.15
2018-01-29T13:43:37.038Z,22.09
2018-01-29T13:44:45.998Z,22.06
2018-01-29T13:45:55.220Z,22.07
2018-01-29T13:47:04.478Z,22.15
2018-01-29T13:48:13.224Z,22.1
2018-01-29T13:49:22.203Z,22.06
2018-01-29T13:50:31.189Z,22.05
2018-01-29T13:51:40.147Z,22.09
2018-01-29T13:52:49.373Z,22.05
2018-01-29T13:53:58.112Z,22.03
2018-01-29T13:55:07.331Z,22.03
2018-01-29T13:56:16.035Z,22.12
2018-01-29T13:57:25.004Z,22.02
2018-01-29T13:58:33.994Z,22.09
2018-01-29T13:59:43.213Z,22.05
2018-01-29T14:00:51.914Z,22.05
2018-01-29T14:02:00.883Z,22.02
2018-01-29T14:03:10.636Z,22.07
2018-01-29T14:04:19.883Z,21.98
2018-01-29T14:05:29.113Z,22.09
2018-01-29T14:06:38.088Z,22.12
2018-01-29T14:07:46.830Z,22.09
2018-01-29T14:08:55.652Z,22.03
2018-01-29T14:10:05.210Z,22.05
2018-01-29T14:11:13.987Z,22.12
2018-01-29T14:12:22.742Z,22.09
2018-01-29T14:13:31.503Z,21.98
2018-01-29T14:14:40.739Z,22.07
2018-01-29T14:15:50.231Z,22
2018-01-29T14:16:59.233Z,22
2018-01-29T14:18:07.958Z,21.99
2018-01-29T14:19:17.216Z,22.09
2018-01-29T14:20:27.052Z,22.05
2018-01-29T14:21:36.007Z,22.02
2018-01-29T14:22:45.499Z,21.91
2018-01-29T14:23:54.752Z,21.96
2018-01-29T14:25:04.008Z,21.94
2018-01-29T14:26:13.238Z,21.99
2018-01-29T14:27:22.270Z,21.92
2018-01-29T14:28:31.314Z,21.94
2018-01-29T14:29:40.285Z,21.99
2018-01-29T14:30:49.813Z,22
2018-01-29T14:31:59.043Z,21.96
2018-01-29T14:33:08.919Z,21.99
2018-01-29T14:34:17.647Z,21.94
2018-01-29T14:35:26.637Z,22
2018-01-29T14:36:35.381Z,21.99
2018-01-29T14:37:45.141Z,22.03
2018-01-29T14:38:54.118Z,22.02
2018-01-29T14:40:03.631Z,22.02
2018-01-29T14:41:12.868Z,21.99
2018-01-29T14:42:21.598Z,21.96
2018-01-29T14:43:30.834Z,21.98
2018-01-29T14:44:39.799Z,22.02
2018-01-29T14:45:48.496Z,22.02
2018-01-29T14:46:57.985Z,21.98
2018-01-29T14:48:07.238Z,21.96
2018-01-29T14:49:16.620Z,21.98
2018-01-29T14:50:25.854Z,21.96
2018-01-29T14:51:35.877Z,21.98
2018-01-29T14:52:44.863Z,21.96
2018-01-29T14:53:53.599Z,22.05